Time;durP1;ratioP1;P1;durP2;ratioP2;P2;SDS_P1;SDS_P2;PMS_P1;PMS_P2;Temp;Humidity;BMP_temperature;BMP_pressure;BME280_temperature;BME280_humidity;BME280_pressure;Samples;Min_cycle;Max_cycle;Signal;HPM_P1;HPM_P2
2024/02/29 00:02:21;;;;;;;0.20;0.20;;;;;;;9.79;69.95;101552.72;5093024;28;20092;-77
2024/02/29 00:04:47;;;;;;;0.32;0.32;;;;;;;9.79;69.99;101551.84;5093438;28;20112;-77
2024/02/29 00:07:13;;;;;;;1.67;1.65;;;;;;;9.82;69.86;101552.72;5092990;28;20433;-78
2024/02/29 00:09:39;;;;;;;0.52;0.52;;;;;;;9.88;69.67;101550.03;5093813;28;20063;-78
2024/02/29 00:12:06;;;;;;;0.32;0.32;;;;;;;9.93;69.59;101551.78;5094078;28;20066;-77
2024/02/29 00:14:32;;;;;;;0.15;0.15;;;;;;;9.96;69.12;101542.03;5094043;28;20485;-78
2024/02/29 00:17:00;;;;;;;0.20;0.20;;;;;;;9.92;69.23;101539.41;5093561;28;20035;-78
2024/02/29 00:19:27;;;;;;;0.65;0.65;;;;;;;9.87;69.29;101536.81;5094007;28;20051;-78
2024/02/29 00:21:54;;;;;;;0.15;0.15;;;;;;;9.90;69.12;101534.13;5081528;28;20025;-78
2024/02/29 00:24:20;;;;;;;0.20;0.20;;;;;;;9.87;68.75;101529.75;5082880;28;20021;-77
2024/02/29 00:26:47;;;;;;;2.30;2.17;;;;;;;9.78;69.19;101526.28;5085705;28;20028;-78
2024/02/29 00:29:14;;;;;;;0.20;0.20;;;;;;;9.77;69.18;101527.16;5094138;28;20028;-77
2024/02/29 00:31:44;;;;;;;0.20;0.20;;;;;;;9.71;69.00;101523.66;5093510;28;20115;-77
2024/02/29 00:34:12;;;;;;;0.10;0.10;;;;;;;9.57;69.30;101522.88;5094194;28;20024;-78
2024/02/29 00:36:38;;;;;;;0.10;0.10;;;;;;;9.63;69.06;101528.13;5093121;28;20114;-78
2024/02/29 00:39:06;;;;;;;0.47;0.47;;;;;;;9.63;69.22;101514.91;5094243;28;20101;-78
2024/02/29 00:41:33;;;;;;;0.10;0.10;;;;;;;9.61;69.21;101510.47;5094445;28;20028;-78
2024/02/29 00:43:59;;;;;;;3.13;1.48;;;;;;;9.63;69.38;101520.19;5093621;28;20087;-78
2024/02/29 00:46:26;;;;;;;0.30;0.30;;;;;;;9.58;69.52;101515.78;5095649;28;20032;-79
2024/02/29 00:48:53;;;;;;;0.15;0.15;;;;;;;9.62;69.53;101506.94;5097849;28;20073;-79
2024/02/29 00:51:20;;;;;;;0.10;0.10;;;;;;;9.58;69.29;101515.78;5097706;28;20028;-79
2024/02/29 00:53:46;;;;;;;0.20;0.20;;;;;;;9.63;69.23;101514.91;5101621;28;20103;-79
2024/02/29 00:56:12;;;;;;;0.40;0.40;;;;;;;9.50;69.52;101494.69;5101245;28;20024;-79
2024/02/29 00:58:39;;;;;;;0.32;0.32;;;;;;;9.48;69.64;101499.09;5100266;28;20039;-79
2024/02/29 01:01:05;;;;;;;0.13;0.13;;;;;;;9.43;69.58;101501.75;5096472;28;20031;-79
2024/02/29 01:03:31;;;;;;;0.45;0.45;;;;;;;9.53;69.48;101486.72;5095816;28;20024;-78
2024/02/29 01:05:58;;;;;;;1.75;1.65;;;;;;;9.48;69.38;101501.72;5095993;28;20036;-78
2024/02/29 01:08:24;;;;;;;0.10;0.10;;;;;;;9.44;69.78;101486.78;5096865;28;20032;-78
2024/02/29 01:10:50;;;;;;;1.58;1.48;;;;;;;9.54;69.47;101483.19;5096677;28;20024;-78
2024/02/29 01:13:16;;;;;;;0.10;0.10;;;;;;;9.46;69.84;101484.97;5088058;28;20464;-78
2024/02/29 01:15:43;;;;;;;1.17;1.17;;;;;;;9.51;69.87;101483.22;5097553;28;20106;-79
2024/02/29 01:18:09;;;;;;;1.17;1.17;;;;;;;9.54;69.72;101480.53;5100432;28;20051;-78
2024/02/29 01:20:35;;;;;;;0.32;0.32;;;;;;;9.43;69.69;101482.38;5099734;28;20025;-79
2024/02/29 01:23:02;;;;;;;0.30;0.30;;;;;;;9.43;69.78;101466.50;5100469;28;20024;-80
2024/02/29 01:25:28;;;;;;;2.30;2.10;;;;;;;9.41;69.76;101470.91;5105849;28;20059;-79
2024/02/29 01:27:54;;;;;;;0.20;0.20;;;;;;;9.35;69.51;101456.81;5106214;28;20042;-79
2024/02/29 01:30:20;;;;;;;0.30;0.30;;;;;;;9.46;69.56;101453.25;5100911;28;20031;-78
2024/02/29 01:32:47;;;;;;;0.10;0.10;;;;;;;9.55;69.52;101453.19;5101979;28;20043;-80
2024/02/29 01:35:13;;;;;;;0.30;0.30;;;;;;;9.51;69.41;101435.59;5100217;28;20016;-79
2024/02/29 01:37:39;;;;;;;0.10;0.10;;;;;;;9.44;69.65;101442.69;5100978;28;20028;-78
2024/02/29 01:40:06;;;;;;;1.13;0.55;;;;;;;9.34;69.59;101433.91;5101497;28;20111;-79
2024/02/29 01:42:33;;;;;;;0.52;0.52;;;;;;;9.49;69.78;101432.06;5101409;28;20034;-79
2024/02/29 01:44:59;;;;;;;0.52;0.52;;;;;;;9.34;69.78;101418.03;5100673;28;20016;-79
2024/02/29 01:47:26;;;;;;;0.10;0.10;;;;;;;9.44;69.60;101412.72;5101654;28;20039;-79
2024/02/29 01:49:59;;;;;;;0.55;0.55;;;;;;;9.50;69.41;101423.25;5101480;28;20032;-79
2024/02/29 01:52:26;;;;;;;;;;;;;;;9.61;68.95;101409.94;5102668;28;20518;-80
2024/02/29 01:54:52;;;;;;;1.10;0.82;;;;;;;9.47;69.29;101410.03;5100423;28;19912;-79
2024/02/29 01:57:18;;;;;;;0.10;0.10;;;;;;;9.56;69.18;101407.34;5101485;28;20099;-79
2024/02/29 01:59:46;;;;;;;0.10;0.10;;;;;;;9.47;69.50;101404.75;5101347;28;20043;-79
2024/02/29 02:02:13;;;;;;;0.75;0.75;;;;;;;9.41;69.53;101404.78;5101883;28;20058;-79
2024/02/29 02:04:39;;;;;;;0.65;0.65;;;;;;;9.42;69.53;101395.97;5101152;28;20020;-79
2024/02/29 02:07:06;;;;;;;1.75;1.65;;;;;;;9.39;69.57;101405.69;5097677;28;20582;-79
2024/02/29 02:09:34;;;;;;;0.30;0.30;;;;;;;9.41;69.84;101386.28;5094457;28;20035;-78
2024/02/29 02:12:01;;;;;;;0.63;0.63;;;;;;;9.46;69.93;101385.38;5095961;28;20031;-78
2024/02/29 02:14:28;;;;;;;0.90;0.90;;;;;;;9.37;70.66;101388.06;5099174;28;20046;-79
2024/02/29 02:16:54;;;;;;;0.28;0.28;;;;;;;9.46;70.22;101384.47;5099223;28;20024;-79
2024/02/29 02:19:20;;;;;;;0.20;0.20;;;;;;;9.39;70.76;101378.34;5099681;28;20031;-79
2024/02/29 02:21:47;;;;;;;0.10;0.10;;;;;;;9.42;70.62;101366.88;5100065;28;20031;-79
2024/02/29 02:24:13;;;;;;;0.93;0.93;;;;;;;9.39;71.03;101373.06;5100621;28;20020;-79
2024/02/29 02:26:39;;;;;;;0.85;0.85;;;;;;;9.37;71.42;101367.78;5099508;28;20025;-79
2024/02/29 02:29:06;;;;;;;0.17;0.17;;;;;;;9.35;71.68;101364.28;5100521;28;20024;-79
2024/02/29 02:31:32;;;;;;;0.10;0.10;;;;;;;9.29;72.14;101361.66;5099956;28;20403;-79
2024/02/29 02:33:58;;;;;;;0.10;0.10;;;;;;;9.29;72.58;101363.44;5099500;28;20399;-79
2024/02/29 02:36:24;;;;;;;2.25;0.60;;;;;;;9.11;73.73;101357.38;5098166;28;20066;-78
2024/02/29 02:38:51;;;;;;;0.20;0.20;;;;;;;9.13;73.88;101355.59;5099281;28;20047;-79
2024/02/29 02:41:17;;;;;;;5.63;2.15;;;;;;;9.13;73.89;101352.06;5099195;28;20082;-79
2024/02/29 02:43:48;;;;;;;0.28;0.28;;;;;;;9.14;74.16;101356.47;5099488;28;20051;-79
2024/02/29 02:46:14;;;;;;;0.10;0.10;;;;;;;9.12;74.83;101345.91;5099331;28;20028;-79
2024/02/29 02:48:40;;;;;;;0.20;0.20;;;;;;;9.13;74.60;101341.50;5099356;28;20036;-79
2024/02/29 02:51:07;;;;;;;0.10;0.10;;;;;;;9.04;75.07;101342.44;5091776;28;20032;-79
2024/02/29 02:53:33;;;;;;;0.10;0.10;;;;;;;9.02;75.67;101337.16;5098768;28;20024;-78
2024/02/29 02:55:59;;;;;;;0.40;0.40;;;;;;;8.98;76.22;101339.81;5098509;28;20483;-79
2024/02/29 02:58:25;;;;;;;0.15;0.15;;;;;;;8.96;75.95;101331.00;5097116;28;20052;-80
2024/02/29 03:00:52;;;;;;;0.50;0.50;;;;;;;8.97;76.10;101328.38;5091627;28;20527;-80
2024/02/29 03:03:18;;;;;;;0.10;0.10;;;;;;;9.05;76.12;101321.28;5098274;28;20032;-80
2024/02/29 03:05:44;;;;;;;0.10;0.10;;;;;;;9.00;76.48;101317.78;5098352;28;20104;-80
2024/02/29 03:08:10;;;;;;;0.45;0.45;;;;;;;8.98;76.96;101324.81;5098471;28;20028;-79
2024/02/29 03:10:37;;;;;;;0.20;0.20;;;;;;;8.99;76.94;101320.44;5099677;28;20028;-79
2024/02/29 03:13:04;;;;;;;0.10;0.10;;;;;;;9.04;76.85;101319.50;5102228;28;20042;-79
2024/02/29 03:15:30;;;;;;;0.20;0.20;;;;;;;9.11;76.34;101308.91;5097362;28;20031;-79
2024/02/29 03:17:56;;;;;;;0.15;0.15;;;;;;;9.03;77.03;101309.84;5088327;28;20052;-79
2024/02/29 03:20:23;;;;;;;0.10;0.10;;;;;;;9.09;77.06;101305.41;5089988;28;20057;-79
2024/02/29 03:22:49;;;;;;;0.10;0.10;;;;;;;9.11;77.33;101308.91;5093834;28;20077;-78
2024/02/29 03:25:16;;;;;;;1.50;1.30;;;;;;;9.07;77.31;101303.66;5093873;28;20055;-78
2024/02/29 03:27:42;;;;;;;1.13;1.13;;;;;;;9.16;77.32;101302.72;5097620;28;20032;-80
2024/02/29 03:30:09;;;;;;;0.85;0.55;;;;;;;9.12;77.34;101292.16;5096409;28;20077;-80
2024/02/29 03:32:35;;;;;;;0.10;0.10;;;;;;;9.11;77.64;101288.66;5097694;28;20028;-80
2024/02/29 03:35:04;;;;;;;0.77;0.77;;;;;;;9.15;77.74;101284.22;5097975;28;20441;-80
2024/02/29 03:37:30;;;;;;;0.15;0.15;;;;;;;9.09;77.89;101290.41;5097414;28;20028;-80
2024/02/29 03:39:56;;;;;;;2.72;0.57;;;;;;;9.13;78.00;101281.56;5097950;28;20044;-79
2024/02/29 03:42:22;;;;;;;0.10;0.10;;;;;;;9.11;78.19;101271.88;5098125;28;20031;-80
2024/02/29 03:44:48;;;;;;;0.20;0.20;;;;;;;9.14;78.35;101266.59;5098400;28;20020;-80
2024/02/29 03:47:15;;;;;;;0.10;0.10;;;;;;;9.17;78.14;101262.16;5097216;28;20124;-80
2024/02/29 03:49:41;;;;;;;0.30;0.30;;;;;;;9.15;78.44;101257.78;5098344;28;20035;-80
2024/02/29 03:52:07;;;;;;;1.23;1.23;;;;;;;9.17;78.30;101254.25;5098044;28;20407;-79
2024/02/29 03:54:33;;;;;;;0.10;0.10;;;;;;;9.17;78.49;101261.28;5098702;28;20020;-80
2024/02/29 03:57:00;;;;;;;1.17;1.17;;;;;;;9.24;78.54;101247.13;5097803;28;20040;-80
2024/02/29 03:59:26;;;;;;;0.30;0.30;;;;;;;9.26;78.25;101250.63;5099297;28;20028;-78
2024/02/29 04:01:52;;;;;;;0.77;0.77;;;;;;;9.25;78.27;101254.16;5100180;28;20035;-80
2024/02/29 04:04:19;;;;;;;1.17;1.15;;;;;;;9.26;78.49;101255.94;5090019;28;20051;-80
2024/02/29 04:06:46;;;;;;;0.10;0.10;;;;;;;9.26;78.47;101255.03;5097599;28;20058;-77
2024/02/29 04:09:13;;;;;;;0.13;0.13;;;;;;;9.27;78.42;101249.75;5099114;28;20028;-80
2024/02/29 04:11:39;;;;;;;0.30;0.30;;;;;;;9.29;78.64;101240.03;5099209;28;20024;-80
2024/02/29 04:14:06;;;;;;;0.75;0.52;;;;;;;9.26;78.86;101245.34;5098076;28;20518;-80
2024/02/29 04:16:36;;;;;;;0.52;0.52;;;;;;;9.28;78.68;101240.03;5097736;28;20028;-81
2024/02/29 04:19:03;;;;;;;0.30;0.30;;;;;;;9.33;78.43;101231.19;5103283;28;20032;-79
2024/02/29 04:21:30;;;;;;;0.20;0.20;;;;;;;9.28;78.70;101227.69;5108458;28;20032;-81
2024/02/29 04:23:56;;;;;;;1.23;1.23;;;;;;;9.35;78.51;101233.81;5095285;28;20020;-79
2024/02/29 04:26:24;;;;;;;0.20;0.20;;;;;;;9.37;78.41;101230.28;5088503;28;20094;-80
2024/02/29 04:28:50;;;;;;;0.32;0.32;;;;;;;9.27;78.51;101225.97;5099291;28;20034;-79
2024/02/29 04:31:17;;;;;;;7.28;1.65;;;;;;;9.35;78.25;101221.47;5098389;28;20028;-81
2024/02/29 04:33:45;;;;;;;0.10;0.10;;;;;;;9.37;78.51;101224.09;5098889;28;20391;-80
2024/02/29 04:36:11;;;;;;;0.73;0.73;;;;;;;9.36;78.42;101227.66;5098210;28;20036;-78
2024/02/29 04:38:37;;;;;;;0.10;0.10;;;;;;;9.40;78.17;101221.44;5100432;28;20098;-78
2024/02/29 04:41:04;;;;;;;0.40;0.40;;;;;;;9.37;78.20;101217.03;5098909;28;20024;-77
2024/02/29 04:43:30;;;;;;;0.20;0.20;;;;;;;9.40;78.43;101226.72;5089636;28;20107;-80
2024/02/29 04:45:56;;;;;;;0.20;0.20;;;;;;;9.35;78.57;101218.81;5097437;28;20044;-80
2024/02/29 04:48:22;;;;;;;0.10;0.10;;;;;;;9.42;78.28;101208.19;5097881;28;20066;-77
2024/02/29 04:50:49;;;;;;;0.73;0.73;;;;;;;9.43;78.13;101209.94;5095512;28;20506;-81
2024/02/29 04:53:15;;;;;;;0.55;0.55;;;;;;;9.43;78.28;101209.94;5086682;28;20037;-81
2024/02/29 04:55:42;;;;;;;0.40;0.40;;;;;;;9.40;78.32;101200.28;5090342;28;20036;-80
2024/02/29 04:58:08;;;;;;;0.50;0.50;;;;;;;9.47;77.96;101201.06;5100559;28;20024;-80
2024/02/29 05:00:35;;;;;;;0.10;0.10;;;;;;;9.45;78.34;101192.31;5101450;28;20032;-80
2024/02/29 05:03:01;;;;;;;0.10;0.10;;;;;;;9.44;78.39;101195.84;5099129;28;20054;-80
2024/02/29 05:05:27;;;;;;;0.30;0.30;;;;;;;9.41;78.24;101196.75;5098478;28;20063;-80
2024/02/29 05:07:54;;;;;;;0.43;0.43;;;;;;;9.41;78.32;101194.09;5101336;28;20410;-80
2024/02/29 05:10:21;;;;;;;0.55;0.38;;;;;;;9.38;78.55;101189.72;5102624;28;20036;-81
2024/02/29 05:12:50;;;;;;;1.10;1.10;;;;;;;9.41;78.50;101180.88;5101416;28;20398;-81
2024/02/29 05:15:19;;;;;;;0.28;0.28;;;;;;;9.45;78.41;101187.00;5101257;28;20031;-80
2024/02/29 05:17:47;;;;;;;0.20;0.20;;;;;;;9.46;78.37;101178.16;5102041;28;20024;-81
2024/02/29 05:20:14;;;;;;;0.10;0.10;;;;;;;9.36;78.47;101177.41;5101268;28;20023;-81
2024/02/29 05:22:40;;;;;;;0.43;0.43;;;;;;;9.37;78.34;101169.44;5100653;28;20020;-81
2024/02/29 05:25:09;;;;;;;0.20;0.20;;;;;;;9.39;78.60;101167.66;5100982;28;20038;-79
2024/02/29 05:27:36;;;;;;;6.65;0.85;;;;;;;9.40;78.43;101171.19;5101184;28;20032;-81
2024/02/29 05:30:03;;;;;;;0.43;0.43;;;;;;;9.43;78.23;101171.13;5100836;28;20024;-80
2024/02/29 05:32:30;;;;;;;1.02;1.02;;;;;;;9.42;78.32;101165.88;5098571;28;20051;-80
2024/02/29 05:34:56;;;;;;;1.55;1.35;;;;;;;9.46;78.21;101163.19;5094361;28;20035;-77
2024/02/29 05:37:22;;;;;;;0.10;0.10;;;;;;;9.47;78.25;101161.41;5094141;28;20031;-80
2024/02/29 05:39:48;;;;;;;0.10;0.10;;;;;;;9.39;78.57;101151.81;5094590;28;20028;-79
2024/02/29 05:42:15;;;;;;;0.30;0.30;;;;;;;9.37;78.44;101158.88;5096054;28;20029;-79
2024/02/29 05:44:41;;;;;;;1.00;1.00;;;;;;;9.39;78.29;101151.81;5105559;28;20047;-80
2024/02/29 05:47:08;;;;;;;0.47;0.47;;;;;;;9.43;78.25;101157.06;5098612;28;20042;-80
2024/02/29 05:49:34;;;;;;;2.85;1.00;;;;;;;9.51;77.91;101164.00;5099304;28;20070;-80
2024/02/29 05:52:00;;;;;;;1.25;1.25;;;;;;;9.46;78.34;101155.25;5100471;28;20426;-80
2024/02/29 05:54:27;;;;;;;0.82;0.82;;;;;;;9.53;78.18;101153.41;5097715;28;20441;-80
2024/02/29 05:56:57;;;;;;;0.10;0.10;;;;;;;9.52;78.05;101151.66;5098972;28;20020;-80
2024/02/29 05:59:23;;;;;;;0.55;0.50;;;;;;;9.46;78.24;101141.13;5099757;28;20111;-79
2024/02/29 06:01:49;;;;;;;1.55;1.27;;;;;;;9.51;78.09;101142.00;5096750;28;20032;-80
2024/02/29 06:04:16;;;;;;;0.65;0.65;;;;;;;9.56;77.91;101142.81;5095461;28;20035;-79
2024/02/29 06:06:42;;;;;;;0.75;0.55;;;;;;;9.56;77.98;101137.50;5095786;28;20059;-80
2024/02/29 06:09:12;;;;;;;1.25;0.90;;;;;;;9.53;78.14;101132.25;5099750;28;20028;-79
2024/02/29 06:11:39;;;;;;;0.28;0.28;;;;;;;9.54;77.85;101141.94;5099896;28;20411;-79
2024/02/29 06:14:06;;;;;;;0.20;0.20;;;;;;;9.47;78.44;101137.59;5099726;28;20499;-80
2024/02/29 06:16:32;;;;;;;0.40;0.40;;;;;;;9.44;78.82;101138.50;5091155;28;20047;-80
2024/02/29 06:18:59;;;;;;;0.98;0.57;;;;;;;9.46;78.31;101143.78;5099412;28;20028;-80
2024/02/29 06:21:25;;;;;;;0.20;0.20;;;;;;;9.58;78.17;101148.94;5090994;28;20032;-80
2024/02/29 06:23:53;;;;;;;0.10;0.10;;;;;;;9.64;78.07;101135.63;5100054;28;20031;-80
2024/02/29 06:26:19;;;;;;;0.20;0.20;;;;;;;9.57;77.90;101144.56;5090503;28;20058;-80
2024/02/29 06:28:46;;;;;;;0.30;0.30;;;;;;;9.54;78.37;101136.66;5083136;28;20024;-80
2024/02/29 06:31:12;;;;;;;2.30;0.95;;;;;;;9.61;78.24;101142.72;5099403;28;20131;-79
2024/02/29 06:33:38;;;;;;;0.85;0.70;;;;;;;9.55;78.60;101136.63;5099312;28;20028;-80
2024/02/29 06:36:05;;;;;;;0.10;0.10;;;;;;;9.59;78.51;101137.47;5098664;28;20046;-80
2024/02/29 06:38:31;;;;;;;0.20;0.20;;;;;;;9.58;78.42;101132.19;5099002;28;20024;-80
2024/02/29 06:40:57;;;;;;;0.10;0.10;;;;;;;9.60;78.42;101135.72;5098613;28;20035;-80
2024/02/29 06:43:23;;;;;;;0.17;0.17;;;;;;;9.65;78.46;101137.41;5093670;28;20078;-80
2024/02/29 06:45:50;;;;;;;0.10;0.10;;;;;;;9.67;78.43;101132.97;5093060;28;20055;-79
2024/02/29 06:48:17;;;;;;;0.20;0.20;;;;;;;9.70;78.49;101130.28;5092310;28;20110;-78
2024/02/29 06:50:44;;;;;;;1.15;1.15;;;;;;;9.75;78.28;101118.78;5092712;28;20548;-79
2024/02/29 06:53:10;;;;;;;0.20;0.20;;;;;;;9.68;78.42;101121.50;5092804;28;20097;-79
2024/02/29 06:55:37;;;;;;;0.10;0.10;;;;;;;9.64;78.70;101119.75;5092370;28;20031;-78
2024/02/29 06:58:05;;;;;;;0.35;0.35;;;;;;;9.67;78.94;101117.09;5093104;28;20437;-79
2024/02/29 07:00:32;;;;;;;0.30;0.30;;;;;;;9.78;78.43;101116.09;5085016;28;20043;-79
2024/02/29 07:03:00;;;;;;;0.82;0.82;;;;;;;9.73;78.69;101124.06;5093286;28;20041;-79
2024/02/29 07:05:26;;;;;;;0.20;0.20;;;;;;;9.74;78.83;101115.25;5093297;28;20052;-79
2024/02/29 07:07:54;;;;;;;0.30;0.30;;;;;;;9.78;78.93;101110.78;5093711;28;20135;-79
2024/02/29 07:10:21;;;;;;;0.22;0.22;;;;;;;9.74;79.04;101114.38;5094788;28;20028;-79
2024/02/29 07:12:47;;;;;;;0.35;0.35;;;;;;;9.80;78.56;101109.88;5097174;28;20027;-80
2024/02/29 07:15:14;;;;;;;0.40;0.40;;;;;;;9.80;79.13;101107.22;5098953;28;20043;-80
2024/02/29 07:17:41;;;;;;;0.90;0.90;;;;;;;9.80;79.20;101103.72;5097193;28;20035;-79
2024/02/29 07:20:10;;;;;;;0.40;0.40;;;;;;;9.81;78.94;101106.34;5096385;28;20045;-79
2024/02/29 07:22:37;;;;;;;0.57;0.57;;;;;;;9.76;79.20;101107.28;5096819;28;20028;-79
2024/02/29 07:25:03;;;;;;;0.17;0.17;;;;;;;9.83;79.21;101099.28;5087205;28;20027;-79
2024/02/29 07:27:30;;;;;;;0.75;0.57;;;;;;;9.99;78.54;101099.94;5096209;28;20054;-79
2024/02/29 07:29:56;;;;;;;0.28;0.28;;;;;;;10.02;78.77;101104.31;5096076;28;20027;-79
2024/02/29 07:32:22;;;;;;;0.40;0.40;;;;;;;10.11;78.02;101095.38;5096508;28;20486;-80
2024/02/29 07:34:48;;;;;;;0.10;0.10;;;;;;;9.98;78.43;101098.19;5096232;28;20033;-79
2024/02/29 07:37:14;;;;;;;0.25;0.25;;;;;;;10.10;78.45;101093.63;5095250;28;20032;-79
2024/02/29 07:39:41;;;;;;;0.20;0.20;;;;;;;10.00;78.87;101093.72;5093243;28;20115;-79
2024/02/29 07:42:07;;;;;;;0.30;0.30;;;;;;;9.95;78.61;101092.06;5090663;28;20062;-79
2024/02/29 07:44:34;;;;;;;0.17;0.17;;;;;;;10.13;78.34;101086.53;5095732;28;20027;-79
2024/02/29 07:47:00;;;;;;;0.55;0.55;;;;;;;10.11;78.46;101092.72;5094866;28;20113;-79
2024/02/29 07:49:26;;;;;;;0.20;0.20;;;;;;;10.15;78.28;101091.78;5095507;28;20038;-80
2024/02/29 07:51:54;;;;;;;0.45;0.45;;;;;;;10.14;78.43;101090.91;5092795;28;20040;-79
2024/02/29 07:54:20;;;;;;;0.32;0.32;;;;;;;10.14;78.16;101087.38;5093117;28;20020;-78
2024/02/29 07:56:46;;;;;;;0.50;0.50;;;;;;;10.10;78.39;101086.53;5093113;28;20121;-79
2024/02/29 07:59:13;;;;;;;0.20;0.20;;;;;;;10.13;78.49;101082.97;5093666;28;20070;-79
2024/02/29 08:01:39;;;;;;;0.35;0.35;;;;;;;10.16;78.38;101082.94;5097277;28;20028;-78
2024/02/29 08:04:05;;;;;;;0.10;0.10;;;;;;;10.14;78.53;101082.09;5098154;28;20429;-78
2024/02/29 08:06:31;;;;;;;0.10;0.10;;;;;;;10.14;78.57;101082.09;5097567;28;20032;-79
2024/02/29 08:08:57;;;;;;;0.13;0.13;;;;;;;10.17;78.62;101088.22;5098050;28;20036;-79
2024/02/29 08:11:25;;;;;;;0.35;0.35;;;;;;;10.16;78.74;101080.31;5098236;28;20035;-78
2024/02/29 08:13:53;;;;;;;0.10;0.10;;;;;;;10.15;78.64;101078.53;5098428;28;20024;-78
2024/02/29 08:16:19;;;;;;;0.50;0.50;;;;;;;10.21;78.42;101078.47;5097884;28;20123;-78
2024/02/29 08:18:45;;;;;;;0.43;0.43;;;;;;;10.08;78.68;101071.59;5102506;28;20024;-79
2024/02/29 08:21:11;;;;;;;0.32;0.32;;;;;;;10.19;78.54;101080.25;5104776;28;20027;-78
2024/02/29 08:23:37;;;;;;;0.20;0.20;;;;;;;10.25;78.50;101077.50;5102771;28;20036;-79
2024/02/29 08:26:08;;;;;;;0.20;0.20;;;;;;;10.34;77.91;101073.84;5100244;28;20035;-79
2024/02/29 08:28:35;;;;;;;0.10;0.10;;;;;;;10.32;77.79;101079.16;5101499;28;20024;-79
2024/02/29 08:31:01;;;;;;;2.65;1.15;;;;;;;10.30;77.97;101083.59;5100439;28;20602;-79
2024/02/29 08:33:27;;;;;;;0.17;0.17;;;;;;;10.27;77.98;101073.06;5099071;28;20051;-79
2024/02/29 08:35:53;;;;;;;0.10;0.10;;;;;;;10.28;77.97;101079.22;5098822;28;20542;-80
2024/02/29 08:38:20;;;;;;;0.20;0.20;;;;;;;10.27;78.03;101077.47;5098390;28;20536;-80
2024/02/29 08:40:46;;;;;;;0.20;0.20;;;;;;;10.27;78.17;101077.47;5083133;28;20027;-78
2024/02/29 08:43:12;;;;;;;0.30;0.30;;;;;;;10.19;78.00;101070.53;5099908;28;20047;-78
2024/02/29 08:45:38;;;;;;;1.98;0.93;;;;;;;10.36;77.71;101072.94;5099823;28;20077;-80
2024/02/29 08:48:05;;;;;;;0.13;0.13;;;;;;;10.40;77.74;101073.78;5091962;28;20094;-80
2024/02/29 08:50:31;;;;;;;0.10;0.10;;;;;;;10.39;78.02;101065.88;5092001;28;20028;-79
2024/02/29 08:52:57;;;;;;;0.45;0.45;;;;;;;10.33;77.78;101070.31;5100465;28;20039;-79
2024/02/29 08:55:24;;;;;;;0.25;0.25;;;;;;;10.36;77.66;101062.34;5099666;28;20122;-79
2024/02/29 08:57:50;;;;;;;0.20;0.20;;;;;;;10.45;77.65;101065.78;5091667;28;21484;-78
2024/02/29 09:00:16;;;;;;;2.72;1.45;;;;;;;10.43;77.43;101062.25;5098939;28;20028;-78
2024/02/29 09:02:44;;;;;;;0.25;0.25;;;;;;;10.53;77.35;101061.22;5088643;28;20028;-78
2024/02/29 09:05:11;;;;;;;1.08;0.85;;;;;;;10.56;77.46;101058.50;5090115;28;20506;-78
2024/02/29 09:07:37;;;;;;;0.20;0.20;;;;;;;10.60;77.58;101049.59;5094548;28;20138;-78
2024/02/29 09:10:03;;;;;;;0.30;0.30;;;;;;;10.54;77.55;101059.44;5089304;28;20055;-78
2024/02/29 09:12:29;;;;;;;0.38;0.38;;;;;;;10.66;77.35;101053.94;5094881;28;20411;-78
2024/02/29 09:14:55;;;;;;;0.40;0.40;;;;;;;10.62;77.08;101047.81;5095476;28;20411;-77
2024/02/29 09:17:21;;;;;;;0.30;0.30;;;;;;;10.65;77.44;101045.13;5095747;28;20484;-78
2024/02/29 09:19:48;;;;;;;0.10;0.10;;;;;;;10.66;77.17;101038.91;5095844;28;20088;-77
2024/02/29 09:22:14;;;;;;;0.57;0.57;;;;;;;10.66;77.33;101038.03;5096356;28;20518;-78
2024/02/29 09:24:40;;;;;;;0.10;0.10;;;;;;;10.70;77.25;101038.88;5095601;28;20540;-77
2024/02/29 09:27:06;;;;;;;0.30;0.30;;;;;;;10.74;77.13;101040.56;5095374;28;20518;-78
2024/02/29 09:29:32;;;;;;;0.52;0.52;;;;;;;10.65;77.25;101031.88;5096019;28;20407;-77
2024/02/29 09:31:59;;;;;;;0.20;0.20;;;;;;;10.66;77.50;101033.59;5095879;28;20036;-78
2024/02/29 09:34:25;;;;;;;0.13;0.13;;;;;;;10.73;76.98;101030.84;5087817;28;20059;-78
2024/02/29 09:36:51;;;;;;;0.30;0.30;;;;;;;10.71;77.10;101025.59;5096197;28;20039;-78
2024/02/29 09:39:18;;;;;;;0.85;0.85;;;;;;;10.77;77.46;101029.91;5096381;28;20103;-78
2024/02/29 09:41:44;;;;;;;0.10;0.10;;;;;;;10.70;77.14;101021.19;5096659;28;20118;-78
2024/02/29 09:44:11;;;;;;;0.30;0.30;;;;;;;10.69;76.96;101022.06;5095710;28;20035;-79
2024/02/29 09:46:41;;;;;;;0.30;0.30;;;;;;;10.77;77.02;101019.31;5094801;28;20122;-78
2024/02/29 09:49:08;;;;;;;0.10;0.10;;;;;;;10.73;77.17;101017.59;5095883;28;20407;-78
2024/02/29 09:51:35;;;;;;;2.45;2.28;;;;;;;10.75;76.98;101010.50;5096202;28;20105;-78
2024/02/29 09:54:02;;;;;;;0.20;0.20;;;;;;;10.65;77.37;101012.44;5095982;28;20024;-78
2024/02/29 09:56:29;;;;;;;0.30;0.30;;;;;;;10.73;77.84;101013.19;5085679;28;20437;-78
2024/02/29 09:58:57;;;;;;;0.10;0.10;;;;;;;10.77;77.69;101019.31;5091092;28;20111;-78
2024/02/29 10:01:23;;;;;;;0.75;0.75;;;;;;;10.73;77.47;101020.25;5084112;28;20028;-79
2024/02/29 10:03:50;;;;;;;0.10;0.10;;;;;;;10.77;77.66;101021.97;5080994;28;20487;-79
2024/02/29 10:06:16;;;;;;;0.52;0.52;;;;;;;10.64;77.45;101014.22;5096496;28;20032;-79
2024/02/29 10:08:42;;;;;;;0.30;0.30;;;;;;;10.81;77.61;101015.69;5096887;28;20080;-78
2024/02/29 10:11:08;;;;;;;0.38;0.38;;;;;;;10.81;77.49;101015.69;5097124;28;20028;-78
2024/02/29 10:13:37;;;;;;;0.20;0.20;;;;;;;10.85;77.44;101014.72;5095256;28;20407;-78
2024/02/29 10:16:05;;;;;;;0.73;0.73;;;;;;;10.84;77.85;101000.63;5088511;28;20024;-77
2024/02/29 10:18:33;;;;;;;2.35;0.68;;;;;;;10.87;77.78;101006.78;5093993;28;20036;-77
2024/02/29 10:20:59;;;;;;;0.10;0.10;;;;;;;10.73;77.53;101007.00;5095429;28;20057;-78
2024/02/29 10:23:29;;;;;;;0.10;0.10;;;;;;;10.85;77.88;101001.47;5094038;28;20039;-78
2024/02/29 10:25:56;;;;;;;0.10;0.10;;;;;;;10.89;77.22;101003.19;5088878;28;20096;-79
2024/02/29 10:28:22;;;;;;;0.50;0.50;;;;;;;10.81;77.57;101000.66;5096251;28;20415;-78
2024/02/29 10:30:52;;;;;;;0.43;0.43;;;;;;;10.92;77.55;101003.13;5103201;28;20025;-78
2024/02/29 10:33:18;;;;;;;0.10;0.10;;;;;;;10.81;77.52;101002.44;5097037;28;20087;-78
2024/02/29 10:35:44;;;;;;;0.20;0.20;;;;;;;10.86;77.85;100987.31;5094188;28;20380;-77
2024/02/29 10:38:10;;;;;;;0.38;0.38;;;;;;;10.95;77.56;100987.16;5093767;28;20039;-77
2024/02/29 10:40:37;;;;;;;0.52;0.52;;;;;;;10.82;78.17;100990.94;5094633;28;20028;-78
2024/02/29 10:43:06;;;;;;;0.30;0.30;;;;;;;10.91;78.20;100974.84;5094745;28;20032;-78
2024/02/29 10:45:42;;;;;;;0.10;0.10;;;;;;;10.93;78.18;100975.69;5094302;28;20028;-78
2024/02/29 10:53:36;;;;;;;1.27;1.10;;;;;;;11.04;77.79;100971.97;5117270;27;1218802;-77
2024/02/29 10:56:10;;;;;;;0.10;0.10;;;;;;;11.07;77.68;100969.25;5131626;27;20038;-77
2024/02/29 10:58:42;;;;;;;0.20;0.20;;;;;;;11.08;77.84;100966.56;5112101;27;20035;-79
2024/02/29 11:01:09;;;;;;;0.20;0.20;;;;;;;11.12;77.57;100959.44;5111498;28;20416;-78
2024/02/29 11:03:38;;;;;;;0.20;0.20;;;;;;;11.14;77.49;100965.56;5113232;28;20038;-78
2024/02/29 11:06:06;;;;;;;0.15;0.15;;;;;;;11.02;77.65;100961.38;5097397;28;20158;-78
2024/02/29 11:08:33;;;;;;;0.15;0.15;;;;;;;11.09;77.28;100962.13;5091443;28;20071;-78
2024/02/29 11:10:59;;;;;;;0.10;0.10;;;;;;;11.15;77.41;100962.00;5090829;28;20031;-78
2024/02/29 11:13:28;;;;;;;0.10;0.10;;;;;;;11.15;77.40;100962.00;5090729;28;20606;-78
2024/02/29 11:15:56;;;;;;;0.10;0.10;;;;;;;11.09;77.47;100965.69;5090118;28;20454;-78
2024/02/29 11:18:24;;;;;;;0.13;0.13;;;;;;;11.19;77.17;100961.06;5090972;28;20024;-79
2024/02/29 11:21:06;;;;;;;0.10;0.10;;;;;;;11.24;77.28;100953.00;5092918;28;20029;-77
2024/02/29 11:23:35;;;;;;;0.20;0.20;;;;;;;11.21;77.67;100953.06;5102687;28;20371;-77
2024/02/29 11:26:06;;;;;;;0.13;0.13;;;;;;;11.26;77.14;100953.84;5097049;28;20483;-78
2024/02/29 11:28:37;;;;;;;0.45;0.45;;;;;;;11.19;76.99;100947.81;5090676;28;20032;-78
2024/02/29 11:31:20;;;;;;;0.20;0.20;;;;;;;11.35;77.28;100939.50;5090552;28;20510;-78
2024/02/29 11:33:46;;;;;;;0.10;0.10;;;;;;;11.25;77.05;100942.38;5103046;28;20032;-78
2024/02/29 11:36:12;;;;;;;0.20;0.20;;;;;;;11.28;77.59;100933.47;5110940;28;20494;-78